EZY11B LOWK-EGKK
Flight info
| Callsign | EZY11B |
|---|---|
| Flight time | N/A |
| Altitude | 34000 |
| Route | INGID DCT ERKIR L608 KUNOD DCT LIRSU DCT DENUT L610 TEBRA |
| Aircraft | A320/M-SDE3FGHIRWY/LB1 |
Departure
| Time | 2026-04-30 13:47 |
|---|---|
| Airport | Klagenfurt Airport (LOWK) |
Arrival
| Time | N/A |
|---|---|
| Airport | London Gatwick Airport (EGKK) |
| Time | Latitude | Longitude | Altitude | Speed | Heading |
|---|---|---|---|---|---|
| 2026-04-30 13:38 | 46.64888 | 14.32522 | 1488 ft | 0 kts | 75° |
| 2026-04-30 13:45 | 46.64806 | 14.32620 | 1486 ft | 16 kts | 171° |
| 2026-04-30 13:45 | 46.64685 | 14.32667 | 1482 ft | 16 kts | 199° |
| 2026-04-30 13:45 | 46.64675 | 14.32513 | 1481 ft | 16 kts | 271° |
| 2026-04-30 13:46 | 46.64579 | 14.32435 | 1479 ft | 18 kts | 199° |
| 2026-04-30 13:46 | 46.64554 | 14.32276 | 1479 ft | 20 kts | 286° |
| 2026-04-30 13:46 | 46.64611 | 14.32135 | 1481 ft | 11 kts | 264° |
| 2026-04-30 13:46 | 46.64576 | 14.32159 | 1481 ft | 8 kts | 104° |
| 2026-04-30 13:47 | 46.64488 | 14.32601 | 1478 ft | 86 kts | 106° |
| 2026-04-30 13:47 | 46.64253 | 14.33765 | 1497 ft | 150 kts | 105° |
| 2026-04-30 13:47 | 46.63935 | 14.35355 | 1809 ft | 180 kts | 107° |
| 2026-04-30 13:47 | 46.63534 | 14.37177 | 2395 ft | 202 kts | 106° |
| 2026-04-30 13:48 | 46.63101 | 14.39188 | 3232 ft | 213 kts | 104° |
| 2026-04-30 13:48 | 46.62702 | 14.41240 | 3888 ft | 224 kts | 103° |
| 2026-04-30 13:48 | 46.62263 | 14.43506 | 4409 ft | 242 kts | 104° |
| 2026-04-30 13:48 | 46.61911 | 14.45955 | 4959 ft | 257 kts | 88° |
| 2026-04-30 13:49 | 46.62333 | 14.48453 | 5768 ft | 259 kts | 60° |
| 2026-04-30 13:49 | 46.63515 | 14.50398 | 6700 ft | 259 kts | 34° |
| 2026-04-30 13:49 | 46.65154 | 14.51347 | 7547 ft | 263 kts | 8° |
| 2026-04-30 13:49 | 46.66981 | 14.51080 | 8403 ft | 269 kts | 341° |
| 2026-04-30 13:50 | 46.68531 | 14.49584 | 9276 ft | 275 kts | 317° |
| 2026-04-30 13:50 | 46.71182 | 14.45626 | 10942 ft | 282 kts | 318° |
| 2026-04-30 13:50 | 46.72601 | 14.43545 | 11383 ft | 299 kts | 318° |
| 2026-04-30 13:51 | 46.74114 | 14.41329 | 11773 ft | 317 kts | 318° |
| 2026-04-30 13:51 | 46.75719 | 14.38975 | 12208 ft | 333 kts | 317° |
| 2026-04-30 13:51 | 46.77365 | 14.36550 | 12893 ft | 339 kts | 318° |
| 2026-04-30 13:51 | 46.79007 | 14.34131 | 13655 ft | 342 kts | 318° |
| 2026-04-30 13:52 | 46.80677 | 14.31666 | 14379 ft | 346 kts | 318° |
| 2026-04-30 13:52 | 46.82369 | 14.29173 | 15089 ft | 349 kts | 319° |
| 2026-04-30 13:52 | 46.84152 | 14.26690 | 15782 ft | 352 kts | 321° |
| 2026-04-30 13:52 | 46.85959 | 14.24252 | 16452 ft | 356 kts | 321° |
| 2026-04-30 13:53 | 46.87797 | 14.21780 | 17136 ft | 360 kts | 321° |
| 2026-04-30 13:53 | 46.89609 | 14.19341 | 17777 ft | 362 kts | 321° |
| 2026-04-30 13:53 | 46.91470 | 14.16826 | 18401 ft | 366 kts | 322° |
| 2026-04-30 13:53 | 46.93324 | 14.14324 | 18999 ft | 369 kts | 322° |
| 2026-04-30 13:54 | 46.95216 | 14.11763 | 19593 ft | 373 kts | 322° |
| 2026-04-30 13:54 | 46.97136 | 14.09165 | 20185 ft | 376 kts | 322° |
| 2026-04-30 13:54 | 46.99000 | 14.06638 | 20734 ft | 380 kts | 322° |
| 2026-04-30 13:54 | 47.00915 | 14.04036 | 21271 ft | 383 kts | 322° |
| 2026-04-30 13:55 | 47.02872 | 14.01374 | 21785 ft | 387 kts | 322° |
| 2026-04-30 13:55 | 47.04845 | 13.98688 | 22329 ft | 390 kts | 323° |
| 2026-04-30 13:55 | 47.06795 | 13.96031 | 22838 ft | 393 kts | 323° |
| 2026-04-30 13:55 | 47.08808 | 13.93287 | 23298 ft | 397 kts | 323° |
| 2026-04-30 13:56 | 47.10786 | 13.90586 | 23766 ft | 400 kts | 323° |
| 2026-04-30 13:56 | 47.12805 | 13.87832 | 24265 ft | 403 kts | 323° |
| 2026-04-30 13:56 | 47.14812 | 13.85083 | 24764 ft | 406 kts | 323° |
| 2026-04-30 13:56 | 47.16806 | 13.82350 | 25235 ft | 409 kts | 323° |
| 2026-04-30 13:57 | 47.18850 | 13.79546 | 25695 ft | 412 kts | 323° |
| 2026-04-30 13:57 | 47.20945 | 13.76666 | 26176 ft | 414 kts | 323° |
| 2026-04-30 13:57 | 47.23063 | 13.73754 | 26650 ft | 417 kts | 324° |
| 2026-04-30 13:57 | 47.25081 | 13.70662 | 27039 ft | 428 kts | 315° |
| 2026-04-30 13:58 | 47.26711 | 13.66990 | 27478 ft | 441 kts | 304° |
| 2026-04-30 13:58 | 47.28693 | 13.58222 | 28385 ft | 458 kts | 291° |
| 2026-04-30 13:58 | 47.29430 | 13.53702 | 28774 ft | 462 kts | 290° |
| 2026-04-30 13:59 | 47.30170 | 13.49105 | 29099 ft | 468 kts | 290° |
| 2026-04-30 13:59 | 47.30929 | 13.44414 | 29518 ft | 470 kts | 290° |
| 2026-04-30 13:59 | 47.31686 | 13.39767 | 29968 ft | 471 kts | 291° |
| 2026-04-30 13:59 | 47.32452 | 13.35074 | 30521 ft | 470 kts | 291° |
| 2026-04-30 14:00 | 47.33209 | 13.30455 | 31050 ft | 468 kts | 291° |
| 2026-04-30 14:00 | 47.34735 | 13.21170 | 32066 ft | 464 kts | 291° |
| 2026-04-30 14:00 | 47.35494 | 13.16540 | 32544 ft | 463 kts | 291° |
| 2026-04-30 14:01 | 47.36248 | 13.11940 | 32835 ft | 467 kts | 291° |
| 2026-04-30 14:01 | 47.37010 | 13.07298 | 32968 ft | 473 kts | 291° |
| 2026-04-30 14:01 | 47.37789 | 13.02525 | 33176 ft | 477 kts | 290° |
| 2026-04-30 14:01 | 47.38555 | 12.97801 | 33497 ft | 478 kts | 290° |
| 2026-04-30 14:02 | 47.39327 | 12.93008 | 33858 ft | 478 kts | 290° |
| 2026-04-30 14:02 | 47.40100 | 12.88203 | 34258 ft | 476 kts | 290° |
| 2026-04-30 14:02 | 47.40859 | 12.83473 | 34653 ft | 473 kts | 290° |
| 2026-04-30 14:02 | 47.41621 | 12.78727 | 35009 ft | 472 kts | 290° |
| 2026-04-30 14:03 | 47.42371 | 12.74041 | 35358 ft | 471 kts | 290° |
| 2026-04-30 14:03 | 47.43122 | 12.69327 | 35718 ft | 469 kts | 289° |
| 2026-04-30 14:03 | 47.44604 | 12.59981 | 36074 ft | 465 kts | 289° |
| 2026-04-30 14:04 | 47.45337 | 12.55343 | 36451 ft | 464 kts | 289° |
| 2026-04-30 14:04 | 47.46071 | 12.50682 | 36767 ft | 464 kts | 289° |
| 2026-04-30 14:04 | 47.46812 | 12.45965 | 37055 ft | 464 kts | 289° |
| 2026-04-30 14:04 | 47.47539 | 12.41328 | 37384 ft | 463 kts | 288° |
| 2026-04-30 14:05 | 47.48258 | 12.36716 | 37730 ft | 461 kts | 289° |
| 2026-04-30 14:05 | 47.48978 | 12.32095 | 38054 ft | 459 kts | 288° |
| 2026-04-30 14:05 | 47.49690 | 12.27516 | 38271 ft | 459 kts | 287° |
| 2026-04-30 14:05 | 47.50407 | 12.22881 | 38295 ft | 459 kts | 288° |
| 2026-04-30 14:06 | 47.52533 | 12.09046 | 38318 ft | 459 kts | 287° |
| 2026-04-30 14:07 | 47.54613 | 11.95139 | 38315 ft | 461 kts | 287° |
| 2026-04-30 14:08 | 47.56556 | 11.81201 | 38312 ft | 460 kts | 287° |
| 2026-04-30 14:08 | 47.58493 | 11.67226 | 38297 ft | 460 kts | 287° |
| 2026-04-30 14:09 | 47.59769 | 11.57953 | 38297 ft | 460 kts | 287° |
| 2026-04-30 14:10 | 47.61680 | 11.43980 | 38318 ft | 461 kts | 287° |
| 2026-04-30 14:10 | 47.62895 | 11.34706 | 38283 ft | 460 kts | 285° |
| 2026-04-30 14:11 | 47.64032 | 11.25266 | 38304 ft | 461 kts | 285° |
| 2026-04-30 14:11 | 47.65163 | 11.15825 | 38313 ft | 461 kts | 285° |
| 2026-04-30 14:12 | 47.66284 | 11.06453 | 38305 ft | 461 kts | 285° |
| 2026-04-30 14:12 | 47.67395 | 10.97094 | 38304 ft | 461 kts | 285° |
| 2026-04-30 14:13 | 47.68513 | 10.87643 | 38312 ft | 462 kts | 285° |
| 2026-04-30 14:13 | 47.69616 | 10.78248 | 38296 ft | 463 kts | 285° |
| 2026-04-30 14:14 | 47.70707 | 10.68851 | 38288 ft | 462 kts | 285° |
| 2026-04-30 14:14 | 47.71795 | 10.59426 | 38294 ft | 461 kts | 284° |
| 2026-04-30 14:15 | 47.72872 | 10.50003 | 38282 ft | 462 kts | 285° |
| 2026-04-30 14:15 | 47.74625 | 10.40916 | 38283 ft | 453 kts | 298° |
| 2026-04-30 14:16 | 47.77674 | 10.32856 | 38292 ft | 444 kts | 311° |
| 2026-04-30 14:16 | 47.81821 | 10.26107 | 38292 ft | 438 kts | 323° |
| 2026-04-30 14:17 | 47.86498 | 10.20354 | 38292 ft | 437 kts | 325° |
| 2026-04-30 14:17 | 47.91251 | 10.14599 | 38288 ft | 438 kts | 325° |
| 2026-04-30 14:18 | 47.95963 | 10.08846 | 38297 ft | 438 kts | 325° |
| 2026-04-30 14:18 | 48.03046 | 10.00153 | 38300 ft | 439 kts | 325° |
| 2026-04-30 14:19 | 48.10100 | 9.91453 | 38302 ft | 439 kts | 325° |
| 2026-04-30 14:20 | 48.14830 | 9.85603 | 38301 ft | 439 kts | 325° |
| 2026-04-30 14:20 | 48.21908 | 9.76820 | 38293 ft | 440 kts | 325° |
| 2026-04-30 14:21 | 48.26635 | 9.70931 | 38294 ft | 441 kts | 325° |
| 2026-04-30 14:22 | 48.33633 | 9.62002 | 38277 ft | 443 kts | 321° |
| 2026-04-30 14:22 | 48.40055 | 9.51957 | 38278 ft | 446 kts | 318° |
| 2026-04-30 14:23 | 48.48525 | 9.38174 | 38276 ft | 446 kts | 317° |
| 2026-04-30 14:24 | 48.54819 | 9.27904 | 38281 ft | 448 kts | 317° |
| 2026-04-30 14:25 | 48.63296 | 9.14015 | 38300 ft | 448 kts | 317° |
| 2026-04-30 14:26 | 48.69612 | 9.03621 | 38298 ft | 449 kts | 317° |
| 2026-04-30 14:27 | 48.75954 | 8.93138 | 38286 ft | 450 kts | 317° |
| 2026-04-30 14:27 | 48.80199 | 8.86098 | 38284 ft | 451 kts | 317° |
| 2026-04-30 14:28 | 48.86543 | 8.75541 | 38290 ft | 450 kts | 317° |
| 2026-04-30 14:28 | 48.90779 | 8.68471 | 38290 ft | 451 kts | 317° |
| 2026-04-30 14:29 | 48.98526 | 8.55493 | 38297 ft | 453 kts | 316° |
| 2026-04-30 14:31 | 49.09818 | 8.36447 | 38293 ft | 453 kts | 316° |
| 2026-04-30 14:31 | 49.16118 | 8.25763 | 38293 ft | 455 kts | 316° |
| 2026-04-30 14:32 | 49.22467 | 8.14955 | 38298 ft | 456 kts | 315° |
| 2026-04-30 14:33 | 49.26703 | 8.07715 | 38305 ft | 456 kts | 315° |
| 2026-04-30 14:33 | 49.33038 | 7.96850 | 38307 ft | 456 kts | 315° |
| 2026-04-30 14:34 | 49.37247 | 7.89609 | 38302 ft | 457 kts | 315° |
| 2026-04-30 14:34 | 49.41483 | 7.82298 | 38305 ft | 458 kts | 315° |
| 2026-04-30 14:35 | 49.47815 | 7.71335 | 38309 ft | 458 kts | 315° |
| 2026-04-30 14:36 | 49.52059 | 7.63962 | 38311 ft | 459 kts | 315° |
| 2026-04-30 14:36 | 49.56274 | 7.56616 | 38309 ft | 459 kts | 315° |
| 2026-04-30 14:37 | 49.60488 | 7.49248 | 38309 ft | 460 kts | 315° |
| 2026-04-30 14:37 | 49.64718 | 7.41836 | 38316 ft | 460 kts | 315° |
| 2026-04-30 14:38 | 49.68950 | 7.34399 | 38319 ft | 461 kts | 314° |
| 2026-04-30 14:38 | 49.73198 | 7.26908 | 38322 ft | 462 kts | 314° |
| 2026-04-30 14:39 | 49.77417 | 7.19450 | 38321 ft | 462 kts | 314° |
| 2026-04-30 14:39 | 49.81656 | 7.11933 | 38320 ft | 462 kts | 314° |
| 2026-04-30 14:40 | 49.87976 | 7.00690 | 38315 ft | 463 kts | 314° |
| 2026-04-30 14:40 | 49.92225 | 6.93102 | 38314 ft | 465 kts | 314° |
| 2026-04-30 14:41 | 49.96449 | 6.85536 | 38314 ft | 465 kts | 314° |
| 2026-04-30 14:41 | 50.00695 | 6.77907 | 38315 ft | 464 kts | 313° |
| 2026-04-30 14:42 | 50.04919 | 6.70291 | 38325 ft | 465 kts | 314° |
| 2026-04-30 14:42 | 50.09137 | 6.62669 | 38326 ft | 465 kts | 314° |
| 2026-04-30 14:43 | 50.13360 | 6.55014 | 38326 ft | 465 kts | 313° |
| 2026-04-30 14:43 | 50.17545 | 6.47251 | 38322 ft | 466 kts | 310° |
| 2026-04-30 14:44 | 50.21147 | 6.38907 | 38304 ft | 469 kts | 301° |
| 2026-04-30 14:44 | 50.24200 | 6.29887 | 38309 ft | 470 kts | 299° |
| 2026-04-30 14:45 | 50.27200 | 6.20835 | 38311 ft | 471 kts | 299° |
| 2026-04-30 14:45 | 50.30225 | 6.11735 | 38302 ft | 471 kts | 299° |
| 2026-04-30 14:46 | 50.33243 | 6.02658 | 38299 ft | 471 kts | 299° |
| 2026-04-30 14:46 | 50.36251 | 5.93588 | 38300 ft | 471 kts | 299° |
| 2026-04-30 14:47 | 50.39257 | 5.84498 | 38302 ft | 471 kts | 299° |
| 2026-04-30 14:47 | 50.42256 | 5.75396 | 38303 ft | 471 kts | 299° |
| 2026-04-30 14:48 | 50.45266 | 5.66233 | 38297 ft | 470 kts | 299° |
| 2026-04-30 14:48 | 50.48241 | 5.57141 | 38296 ft | 470 kts | 298° |
| 2026-04-30 14:49 | 50.51240 | 5.47936 | 38302 ft | 471 kts | 298° |
| 2026-04-30 14:49 | 50.54198 | 5.38829 | 38297 ft | 471 kts | 298° |
| 2026-04-30 14:50 | 50.58658 | 5.25029 | 38289 ft | 471 kts | 298° |
| 2026-04-30 14:51 | 50.63088 | 5.11252 | 38281 ft | 470 kts | 297° |
| 2026-04-30 14:52 | 50.67498 | 4.97455 | 38268 ft | 470 kts | 297° |
| 2026-04-30 14:52 | 50.71897 | 4.83613 | 38274 ft | 471 kts | 297° |
| 2026-04-30 14:53 | 50.76306 | 4.69666 | 38276 ft | 471 kts | 297° |
| 2026-04-30 14:54 | 50.82106 | 4.51198 | 38271 ft | 470 kts | 297° |
| 2026-04-30 14:55 | 50.86449 | 4.37277 | 38273 ft | 470 kts | 297° |
| 2026-04-30 14:56 | 50.92201 | 4.18715 | 38266 ft | 470 kts | 296° |
| 2026-04-30 14:57 | 50.96505 | 4.04731 | 38264 ft | 469 kts | 296° |
| 2026-04-30 14:58 | 51.02190 | 3.86144 | 38256 ft | 470 kts | 296° |
| 2026-04-30 14:58 | 51.06462 | 3.72081 | 38250 ft | 470 kts | 296° |
| 2026-04-30 15:00 | 51.13507 | 3.48703 | 38255 ft | 469 kts | 296° |
| 2026-04-30 15:01 | 51.19108 | 3.29957 | 38251 ft | 469 kts | 295° |
| 2026-04-30 15:01 | 51.23290 | 3.15860 | 38252 ft | 470 kts | 295° |
| 2026-04-30 15:02 | 51.26069 | 3.06452 | 38251 ft | 469 kts | 295° |
| 2026-04-30 15:03 | 51.32932 | 2.82984 | 37640 ft | 462 kts | 293° |
| 2026-04-30 15:04 | 51.35199 | 2.73281 | 35842 ft | 472 kts | 286° |
| 2026-04-30 15:04 | 51.37394 | 2.57859 | 33220 ft | 480 kts | 280° |
| 2026-04-30 15:05 | 51.39281 | 2.42150 | 30931 ft | 474 kts | 280° |
| 2026-04-30 15:06 | 51.40515 | 2.31935 | 29711 ft | 464 kts | 279° |
| 2026-04-30 15:06 | 51.41723 | 2.21930 | 28441 ft | 456 kts | 279° |
| 2026-04-30 15:07 | 51.42929 | 2.12078 | 27182 ft | 448 kts | 279° |
| 2026-04-30 15:07 | 51.44105 | 2.02378 | 25897 ft | 441 kts | 279° |
| 2026-04-30 15:08 | 51.45237 | 1.92869 | 24659 ft | 435 kts | 279° |
| 2026-04-30 15:08 | 51.46878 | 1.78806 | 22860 ft | 426 kts | 279° |
| 2026-04-30 15:09 | 51.47940 | 1.69583 | 21750 ft | 418 kts | 279° |
| 2026-04-30 15:09 | 51.48436 | 1.60404 | 20661 ft | 408 kts | 261° |
| 2026-04-30 15:10 | 51.46856 | 1.51927 | 19645 ft | 397 kts | 246° |
| 2026-04-30 15:11 | 51.42081 | 1.36536 | 17617 ft | 380 kts | 232° |
| 2026-04-30 15:11 | 51.39027 | 1.29664 | 16609 ft | 376 kts | 231° |
| 2026-04-30 15:12 | 51.34555 | 1.19267 | 15787 ft | 383 kts | 232° |
| 2026-04-30 15:13 | 51.31543 | 1.12166 | 15290 ft | 382 kts | 233° |
| 2026-04-30 15:14 | 51.26227 | 0.97616 | 14289 ft | 385 kts | 253° |
| 2026-04-30 15:14 | 51.24558 | 0.85086 | 13525 ft | 383 kts | 256° |
| 2026-04-30 15:16 | 51.21977 | 0.64575 | 11456 ft | 371 kts | 256° |
| 2026-04-30 15:17 | 51.20028 | 0.48781 | 9513 ft | 344 kts | 257° |
| 2026-04-30 15:18 | 51.17585 | 0.32219 | 8153 ft | 295 kts | 251° |
| 2026-04-30 15:19 | 51.15979 | 0.22708 | 8184 ft | 295 kts | 251° |